Time;durP1;ratioP1;P1;durP2;ratioP2;P2;SDS_P1;SDS_P2;PMS_P1;PMS_P2;Temp;Humidity;BMP_temperature;BMP_pressure;BME280_temperature;BME280_humidity;BME280_pressure;Samples;Min_cycle;Max_cycle;Signal;HPM_P1;HPM_P2
2022/02/09 00:00:27;;;;;;;;;;;;;;;7.12;41.17;102185.41;145002;920;1020;-83
2022/02/09 00:03:15;;;;;;;;;;;;;;;7.26;41.70;102194.09;145002;920;1020;-83
2022/02/09 00:05:57;;;;;;;;;;;;;;;7.24;41.75;102199.16;145002;923;1022;-83
2022/02/09 00:08:24;;;;;;;;;;;;;;;7.23;40.01;102197.38;145002;920;1019;-82
2022/02/09 00:10:58;;;;;;;;;;;;;;;7.12;40.89;102213.84;145002;924;1022;-82
2022/02/09 00:16:45;;;;;;;;;;;;;;;7.07;41.35;102215.22;145002;920;1020;-82
2022/02/09 00:19:08;;;;;;;;;;;;;;;7.05;41.37;102217.69;145002;916;1019;-84
2022/02/09 00:21:53;;;;;;;;;;;;;;;7.02;41.09;102211.44;145002;923;1018;-85
2022/02/09 00:33:06;;;;;;;;;;;;;;;6.91;41.27;102218.44;145002;920;1019;-84
2022/02/09 00:41:32;;;;;;;;;;;;;;;6.89;40.84;102226.06;145002;916;1019;-85
2022/02/09 01:56:27;;;;;;;;;;;;;;;7.50;41.17;102266.28;145002;920;1021;-83
2022/02/09 01:58:54;;;;;;;;;;;;;;;7.11;39.71;102274.03;145002;920;1020;-83
2022/02/09 02:01:20;;;;;;;;;;;;;;;6.72;40.13;102271.34;145002;925;1024;-81
2022/02/09 02:03:47;;;;;;;;;;;;;;;6.53;40.70;102250.22;145002;921;1019;-85
2022/02/09 02:06:14;;;;;;;;;;;;;;;6.75;41.28;102252.62;145002;925;1018;-83
2022/02/09 02:08:40;;;;;;;;;;;;;;;6.99;41.59;102262.84;145002;921;1019;-85
2022/02/09 02:11:15;;;;;;;;;;;;;;;6.73;41.29;102259.38;145002;920;1022;-85
2022/02/09 02:19:35;;;;;;;;;;;;;;;6.98;41.15;102255.88;145002;916;1020;-84
2022/02/09 02:31:03;;;;;;;;;;;;;;;6.82;42.53;102252.25;145002;870;1017;-84
2022/02/09 02:43:25;;;;;;;;;;;;;;;6.90;42.29;102265.69;145002;916;1021;-85
2022/02/09 03:11:13;;;;;;;;;;;;;;;6.61;42.88;102289.47;145002;916;1021;-84
2022/02/09 03:13:50;;;;;;;;;;;;;;;6.60;42.00;102293.75;145002;924;1018;-81
2022/02/09 03:16:26;;;;;;;;;;;;;;;6.56;41.99;102299.47;145002;921;1019;-83
2022/02/09 03:24:55;;;;;;;;;;;;;;;6.57;42.34;102310.66;145002;921;1020;-83
2022/02/09 03:27:33;;;;;;;;;;;;;;;6.77;42.68;102291.44;145002;916;1019;-82
2022/02/09 03:44:15;;;;;;;;;;;;;;;7.11;42.00;102281.78;145002;917;1022;-84
2022/02/09 03:49:39;;;;;;;;;;;;;;;7.16;42.08;102295.91;145002;914;1023;-83
2022/02/09 03:52:45;;;;;;;;;;;;;;;7.14;42.19;102294.00;145002;923;1019;-85
2022/02/09 03:55:11;;;;;;;;;;;;;;;7.25;42.18;102303.38;145002;919;1018;-86
2022/02/09 03:57:46;;;;;;;;;;;;;;;7.24;42.47;102286.09;145002;926;1018;-83
2022/02/09 04:00:16;;;;;;;;;;;;;;;7.26;42.23;102307.75;145002;923;1016;-85
2022/02/09 04:02:46;;;;;;;;;;;;;;;7.14;42.15;102317.25;145002;927;1021;-83
2022/02/09 04:05:12;;;;;;;;;;;;;;;7.13;42.80;102308.59;145002;922;1017;-82
2022/02/09 04:07:38;;;;;;;;;;;;;;;7.06;42.76;102311.53;145002;927;1017;-82
2022/02/09 04:10:07;;;;;;;;;;;;;;;7.13;42.60;102313.78;145002;919;1017;-85
2022/02/09 04:12:43;;;;;;;;;;;;;;;7.24;42.53;102320.56;145002;926;1018;-83
2022/02/09 04:15:24;;;;;;;;;;;;;;;7.24;42.46;102337.75;145002;923;1016;-84
2022/02/09 04:37:17;;;;;;;;;;;;;;;6.50;42.86;102340.28;145002;915;1018;-84
2022/02/09 04:39:50;;;;;;;;;;;;;;;6.64;42.95;102341.28;145002;923;1020;-85
2022/02/09 04:51:23;;;;;;;;;;;;;;;6.81;43.59;102363.13;145002;922;1018;-84
2022/02/09 04:56:46;;;;;;;;;;;;;;;6.61;43.80;102359.13;145002;919;1024;-83
2022/02/09 04:59:42;;;;;;;;;;;;;;;6.66;43.37;102369.00;145002;919;1018;-83
2022/02/09 05:02:51;;;;;;;;;;;;;;;6.77;43.64;102374.03;145002;923;1019;-83
2022/02/09 05:20:08;;;;;;;;;;;;;;;5.92;44.76;102383.31;145002;919;1019;-82
2022/02/09 05:25:14;;;;;;;;;;;;;;;5.87;45.20;102384.59;145002;918;1023;-83
2022/02/09 05:27:54;;;;;;;;;;;;;;;6.37;44.56;102382.37;145002;919;1021;-83
2022/02/09 05:30:37;;;;;;;;;;;;;;;6.57;44.87;102386.41;145002;923;1019;-84
2022/02/09 05:33:11;;;;;;;;;;;;;;;6.80;44.28;102384.59;145002;919;1019;-86
2022/02/09 05:35:37;;;;;;;;;;;;;;;6.30;43.43;102395.56;145002;922;1018;-84
2022/02/09 05:38:05;;;;;;;;;;;;;;;6.15;44.08;102398.81;145002;919;1019;-87
2022/02/09 05:40:32;;;;;;;;;;;;;;;6.10;44.30;102404.44;145002;922;1018;-84
2022/02/09 05:42:58;;;;;;;;;;;;;;;6.15;45.33;102408.25;145002;919;1019;-88
2022/02/09 05:45:45;;;;;;;;;;;;;;;6.28;44.92;102412.63;145002;919;1019;-86
2022/02/09 05:49:03;;;;;;;;;;;;;;;6.12;44.29;102416.63;145002;918;1022;-85
2022/02/09 05:51:12;;;;;;;;;;;;;;;6.07;44.61;102415.41;145002;923;1016;-86
2022/02/09 05:53:58;;;;;;;;;;;;;;;6.22;44.71;102415.66;145002;923;1021;-83
2022/02/09 05:56:37;;;;;;;;;;;;;;;6.25;44.49;102418.47;145002;918;1020;-85
2022/02/09 06:01:56;;;;;;;;;;;;;;;6.36;43.63;102427.00;145002;922;1023;-84
2022/02/09 06:04:22;;;;;;;;;;;;;;;6.15;43.16;102424.59;145002;922;1017;-84
2022/02/09 06:06:48;;;;;;;;;;;;;;;6.14;44.32;102432.22;145002;927;1020;-84
2022/02/09 06:09:14;;;;;;;;;;;;;;;6.02;44.33;102423.59;145002;923;1017;-85
2022/02/09 06:11:48;;;;;;;;;;;;;;;5.92;43.73;102429.69;145002;922;1022;-85
2022/02/09 06:19:49;;;;;;;;;;;;;;;6.38;44.01;102429.69;145002;921;1017;-84
2022/02/09 06:22:15;;;;;;;;;;;;;;;6.70;43.48;102438.12;145002;927;1020;-81
2022/02/09 06:24:41;;;;;;;;;;;;;;;6.80;43.00;102443.97;145001;918;2000;-83
2022/02/09 06:27:08;;;;;;;;;;;;;;;7.21;42.82;102439.19;145002;927;1017;-84
2022/02/09 06:29:34;;;;;;;;;;;;;;;7.50;42.44;102440.31;145002;923;1020;-83
2022/02/09 06:32:07;;;;;;;;;;;;;;;7.74;42.57;102445.41;145002;922;1018;-85
2022/02/09 06:34:34;;;;;;;;;;;;;;;7.99;42.22;102451.44;145002;922;1020;-84
2022/02/09 06:37:10;;;;;;;;;;;;;;;8.22;41.81;102454.69;145002;927;1017;-83
2022/02/09 06:39:37;;;;;;;;;;;;;;;8.43;41.81;102459.50;145002;922;1019;-85
2022/02/09 06:42:04;;;;;;;;;;;;;;;8.62;41.86;102452.22;145002;927;1018;-86
2022/02/09 06:44:32;;;;;;;;;;;;;;;8.83;41.67;102459.59;145002;923;1018;-85
2022/02/09 06:46:58;;;;;;;;;;;;;;;8.99;41.57;102464.06;145002;927;1017;-84
2022/02/09 06:49:25;;;;;;;;;;;;;;;9.15;41.59;102459.03;145002;923;1018;-85
2022/02/09 06:51:51;;;;;;;;;;;;;;;9.37;41.48;102466.47;145002;927;1021;-86
2022/02/09 06:54:27;;;;;;;;;;;;;;;9.60;41.42;102464.41;145002;923;1018;-84
2022/02/09 06:57:03;;;;;;;;;;;;;;;9.82;41.44;102465.72;145002;927;1020;-84
2022/02/09 06:59:34;;;;;;;;;;;;;;;10.07;41.62;102460.28;145002;923;1016;-86
2022/02/09 07:02:04;;;;;;;;;;;;;;;10.33;41.35;102464.47;145002;927;1020;-84
2022/02/09 07:04:31;;;;;;;;;;;;;;;10.59;41.37;102472.88;145002;922;1017;-84
2022/02/09 07:06:58;;;;;;;;;;;;;;;10.83;41.32;102466.50;145002;927;1017;-88
2022/02/09 07:09:27;;;;;;;;;;;;;;;11.10;41.41;102463.63;145002;923;1018;-86
2022/02/09 07:12:00;;;;;;;;;;;;;;;11.43;41.04;102461.09;145001;926;2000;-84
2022/02/09 07:14:28;;;;;;;;;;;;;;;11.66;40.99;102464.97;145002;923;1017;-86
2022/02/09 07:16:57;;;;;;;;;;;;;;;11.76;38.04;102468.94;145002;927;1020;-86
2022/02/09 07:19:30;;;;;;;;;;;;;;;11.61;34.52;102466.41;145002;923;1016;-86
2022/02/09 07:22:00;;;;;;;;;;;;;;;11.78;40.57;102464.69;145002;927;1016;-86
2022/02/09 07:24:36;;;;;;;;;;;;;;;12.06;40.14;102471.41;145002;923;1016;-84
2022/02/09 07:30:06;;;;;;;;;;;;;;;12.45;39.95;102469.00;145002;915;1018;-81
2022/02/09 07:32:40;;;;;;;;;;;;;;;12.61;39.78;102463.72;145002;922;1017;-86
2022/02/09 07:35:10;;;;;;;;;;;;;;;12.69;34.08;102462.41;145002;919;1016;-83
2022/02/09 07:38:06;;;;;;;;;;;;;;;12.97;39.51;102470.69;145002;923;1019;-86
2022/02/09 07:40:42;;;;;;;;;;;;;;;13.23;37.38;102471.91;145002;922;1017;-85
2022/02/09 07:43:20;;;;;;;;;;;;;;;12.59;32.14;102467.09;145002;927;1015;-85
2022/02/09 07:46:19;;;;;;;;;;;;;;;13.07;38.42;102471.19;145002;922;1017;-86
2022/02/09 07:49:12;;;;;;;;;;;;;;;13.39;38.73;102468.31;145002;918;1018;-86
2022/02/09 07:52:04;;;;;;;;;;;;;;;13.25;36.63;102470.25;145002;918;1017;-81
2022/02/09 07:54:33;;;;;;;;;;;;;;;13.47;37.34;102466.94;145002;921;1017;-83
2022/02/09 07:57:17;;;;;;;;;;;;;;;13.54;38.13;102471.63;145002;922;1015;-83
2022/02/09 08:00:00;;;;;;;;;;;;;;;13.55;37.54;102467.31;145002;927;1016;-84
2022/02/09 08:02:33;;;;;;;;;;;;;;;13.18;37.28;102466.47;145002;922;1017;-88
2022/02/09 08:05:14;;;;;;;;;;;;;;;12.21;34.58;102456.53;145002;925;1015;-84
2022/02/09 08:07:44;;;;;;;;;;;;;;;12.68;35.55;102465.84;145002;922;1016;-85
2022/02/09 08:10:40;;;;;;;;;;;;;;;;;;;;;
2022/02/09 08:30:22;;;;;;;;;;;;;;;14.06;35.58;102444.34;145002;917;1017;-86
2022/02/09 08:33:06;;;;;;;;;;;;;;;14.31;36.08;102451.47;145002;925;1021;-85
2022/02/09 08:35:32;;;;;;;;;;;;;;;14.52;35.79;102451.50;145002;921;1018;-87
2022/02/09 08:37:59;;;;;;;;;;;;;;;14.59;35.58;102450.03;145002;919;1019;-83
2022/02/09 08:40:26;;;;;;;;;;;;;;;14.80;35.77;102446.53;145002;920;1020;-85
2022/02/09 08:42:53;;;;;;;;;;;;;;;14.79;35.58;102444.75;145002;925;1016;-86
2022/02/09 08:45:25;;;;;;;;;;;;;;;14.83;33.41;102437.06;145002;921;1017;-86
2022/02/09 08:47:52;;;;;;;;;;;;;;;14.87;33.39;102438.09;145002;925;1020;-87
2022/02/09 08:50:21;;;;;;;;;;;;;;;15.12;35.55;102433.81;145002;921;1020;-85
2022/02/09 08:52:48;;;;;;;;;;;;;;;15.21;34.68;102436.78;145002;925;1017;-84
2022/02/09 08:55:15;;;;;;;;;;;;;;;15.33;33.24;102431.13;145002;920;1021;-86
2022/02/09 08:57:42;;;;;;;;;;;;;;;15.48;35.11;102429.09;145002;925;1022;-86
2022/02/09 09:00:18;;;;;;;;;;;;;;;15.40;30.61;102425.28;145002;921;1018;-87
2022/02/09 09:02:48;;;;;;;;;;;;;;;15.52;33.02;102433.56;145002;924;1021;-87
2022/02/09 09:05:21;;;;;;;;;;;;;;;15.44;31.93;102431.53;145002;921;1019;-86
2022/02/09 09:07:53;;;;;;;;;;;;;;;15.07;32.85;102427.53;145002;925;1018;-87
2022/02/09 09:10:32;;;;;;;;;;;;;;;14.89;32.38;102428.59;145002;921;1020;-85
2022/02/09 09:16:58;;;;;;;;;;;;;;;15.06;29.52;102410.94;145002;916;1021;-87
2022/02/09 09:19:00;;;;;;;;;;;;;;;15.18;33.70;102421.88;145002;921;1016;-86
2022/02/09 10:01:16;;;;;;;;;;;;;;;16.39;32.46;102397.31;145002;917;1019;-86
2022/02/09 10:32:01;;;;;;;;;;;;;;;16.45;32.19;102390.53;145002;920;1018;-86
2022/02/09 10:34:29;;;;;;;;;;;;;;;16.30;33.09;102382.16;145002;917;1022;-85
2022/02/09 10:37:00;;;;;;;;;;;;;;;16.51;33.38;102379.34;145002;925;1021;-85
2022/02/09 10:39:43;;;;;;;;;;;;;;;16.61;33.11;102370.94;145002;920;1021;-84
2022/02/09 10:42:31;;;;;;;;;;;;;;;;;;;;;
2022/02/09 10:45:06;;;;;;;;;;;;;;;16.57;32.90;102366.44;145002;923;1021;-84
2022/02/09 10:47:36;;;;;;;;;;;;;;;16.48;31.20;102371.38;145002;927;1020;-86
2022/02/09 10:50:36;;;;;;;;;;;;;;;16.46;33.87;102362.59;145002;923;1022;-89
2022/02/09 10:53:04;;;;;;;;;;;;;;;16.24;29.88;102359.28;145002;923;1019;-86
2022/02/09 10:55:31;;;;;;;;;;;;;;;16.25;33.00;102353.19;145002;919;1019;-84
2022/02/09 10:57:58;;;;;;;;;;;;;;;16.37;33.06;102357.97;145002;923;1020;-86
2022/02/09 11:00:25;;;;;;;;;;;;;;;16.30;32.30;102354.25;145002;918;1021;-90
2022/02/09 11:02:51;;;;;;;;;;;;;;;16.31;33.00;102353.41;145002;923;1022;-87
2022/02/09 11:05:19;;;;;;;;;;;;;;;16.54;33.02;102353.22;145002;919;1020;-85
2022/02/09 11:07:46;;;;;;;;;;;;;;;16.62;32.97;102338.66;145002;922;1022;-84
2022/02/09 11:10:12;;;;;;;;;;;;;;;16.43;33.26;102339.81;145002;918;1019;-83
2022/02/09 11:12:40;;;;;;;;;;;;;;;16.55;33.55;102341.91;145002;918;1020;-85
2022/02/09 11:15:07;;;;;;;;;;;;;;;16.63;33.32;102339.53;145002;918;1019;-83
2022/02/09 11:17:34;;;;;;;;;;;;;;;16.74;33.29;102337.25;145002;921;1018;-84
2022/02/09 11:20:00;;;;;;;;;;;;;;;16.75;33.41;102333.75;145002;918;1019;-83
2022/02/09 11:22:44;;;;;;;;;;;;;;;15.93;29.75;102324.22;145003;922;1019;-81
2022/02/09 11:25:26;;;;;;;;;;;;;;;16.00;30.33;102330.53;145003;919;1015;-86
2022/02/09 11:28:11;;;;;;;;;;;;;;;15.95;31.33;102327.78;145003;924;1021;-84
2022/02/09 11:30:46;;;;;;;;;;;;;;;16.09;32.18;102325.59;145003;919;1020;-82
2022/02/09 11:33:23;;;;;;;;;;;;;;;16.33;33.68;102316.75;145003;925;1021;-83
2022/02/09 11:36:16;;;;;;;;;;;;;;;16.36;33.60;102318.59;145003;922;1017;-84
2022/02/09 11:38:46;;;;;;;;;;;;;;;16.55;33.55;102318.31;145003;921;1022;-84
2022/02/09 11:41:18;;;;;;;;;;;;;;;16.66;33.56;102316.91;145003;919;1020;-84
2022/02/09 11:43:56;;;;;;;;;;;;;;;16.73;33.46;102310.09;145003;924;1016;-84
2022/02/09 11:52:48;;;;;;;;;;;;;;;16.46;32.58;102292.72;145002;915;1023;-87
2022/02/09 11:58:44;;;;;;;;;;;;;;;16.16;32.32;102287.37;145002;916;1019;-88
2022/02/09 12:10:54;;;;;;;;;;;;;;;16.41;33.07;102280.31;145002;915;1019;-84
2022/02/09 12:19:26;;;;;;;;;;;;;;;16.12;33.10;102269.81;145002;920;1018;-83
2022/02/09 12:22:00;;;;;;;;;;;;;;;16.23;33.13;102272.78;145002;920;1019;-84
2022/02/09 12:24:33;;;;;;;;;;;;;;;16.18;32.16;102261.25;145002;923;1019;-85
2022/02/09 12:27:09;;;;;;;;;;;;;;;15.86;32.58;102267.25;145002;920;1019;-84
2022/02/09 12:29:36;;;;;;;;;;;;;;;15.64;33.90;102269.94;145002;924;1021;-86
2022/02/09 12:32:22;;;;;;;;;;;;;;;15.49;32.67;102262.47;145002;919;1018;-84
2022/02/09 12:35:02;;;;;;;;;;;;;;;15.65;34.39;102258.62;145002;924;1022;-84
2022/02/09 12:37:32;;;;;;;;;;;;;;;15.53;33.24;102262.62;145002;919;1022;-83
2022/02/09 12:40:18;;;;;;;;;;;;;;;15.58;32.80;102263.66;145002;923;1019;-84
2022/02/09 12:42:48;;;;;;;;;;;;;;;15.84;34.04;102260.16;145002;920;1019;-87
2022/02/09 12:45:17;;;;;;;;;;;;;;;16.01;34.38;102264.22;145002;923;1020;-85
2022/02/09 12:47:49;;;;;;;;;;;;;;;16.29;33.83;102258.13;145002;919;1021;-83
2022/02/09 12:50:30;;;;;;;;;;;;;;;16.20;34.17;102255.22;145002;924;1018;-85
2022/02/09 12:53:02;;;;;;;;;;;;;;;16.26;34.63;102247.56;145002;919;1020;-84
2022/02/09 12:55:32;;;;;;;;;;;;;;;16.31;34.29;102248.56;145002;924;1017;-84
2022/02/09 12:58:01;;;;;;;;;;;;;;;16.45;34.16;102253.37;145002;920;1018;-84
2022/02/09 13:00:34;;;;;;;;;;;;;;;16.38;34.21;102249.63;145002;923;1017;-84
2022/02/09 13:03:04;;;;;;;;;;;;;;;16.24;34.23;102254.50;145002;919;1016;-84
2022/02/09 13:05:31;;;;;;;;;;;;;;;15.71;33.51;102251.00;145002;924;1021;-84
2022/02/09 13:08:01;;;;;;;;;;;;;;;15.77;34.44;102249.50;145002;919;1020;-84
2022/02/09 13:10:33;;;;;;;;;;;;;;;15.63;34.79;102244.63;145002;924;1017;-85
2022/02/09 13:13:09;;;;;;;;;;;;;;;15.67;34.71;102239.53;145002;920;1020;-84
2022/02/09 13:15:53;;;;;;;;;;;;;;;15.36;35.13;102241.09;145002;923;1018;-85
2022/02/09 14:02:54;;;;;;;;;;;;;;;13.99;39.67;102269.97;145002;919;1019;-86
2022/02/09 14:04:07;;;;;;;;;;;;;;;14.24;38.98;102260.50;145002;916;1021;-85
2022/02/09 14:12:07;;;;;;;;;;;;;;;14.11;41.06;102260.03;145002;920;1019;-84
2022/02/09 14:15:00;;;;;;;;;;;;;;;13.78;41.45;102276.09;145002;919;1019;-84
2022/02/09 14:17:54;;;;;;;;;;;;;;;13.67;42.84;102285.19;145002;924;1020;-85
2022/02/09 14:52:04;;;;;;;;;;;;;;;13.41;45.52;102297.13;145002;919;1022;-82
2022/02/09 14:54:47;;;;;;;;;;;;;;;13.17;46.55;102286.47;145002;919;1022;-85
2022/02/09 14:57:22;;;;;;;;;;;;;;;13.20;46.17;102286.59;145002;924;1021;-83
2022/02/09 15:00:08;;;;;;;;;;;;;;;13.09;46.88;102287.84;145002;919;1019;-84
2022/02/09 15:08:19;;;;;;;;;;;;;;;12.96;47.66;102302.06;145002;919;1018;-84
2022/02/09 15:11:07;;;;;;;;;;;;;;;13.10;46.58;102307.91;145002;920;1019;-82
2022/02/09 15:16:26;;;;;;;;;;;;;;;13.20;47.21;102299.62;145002;915;1018;-85
2022/02/09 15:24:43;;;;;;;;;;;;;;;12.89;47.77;102309.59;145002;920;1020;-84
2022/02/09 15:27:13;;;;;;;;;;;;;;;12.82;47.64;102288.38;145002;920;1018;-83
2022/02/09 15:29:39;;;;;;;;;;;;;;;12.78;47.49;102300.38;145002;923;1018;-83
2022/02/09 15:32:10;;;;;;;;;;;;;;;12.62;47.75;102298.78;145002;919;1020;-84
2022/02/09 15:34:47;;;;;;;;;;;;;;;12.72;47.88;102299.22;145001;924;2000;-83
2022/02/09 15:37:35;;;;;;;;;;;;;;;12.58;47.88;102307.28;145002;919;1020;-85
2022/02/09 15:40:10;;;;;;;;;;;;;;;12.48;48.19;102299.84;145002;923;1020;-83
2022/02/09 15:56:25;;;;;;;;;;;;;;;13.01;44.67;102314.47;145002;920;1023;-83
2022/02/09 16:10:32;;;;;;;;;;;;;;;12.75;45.67;102335.84;145002;916;1020;-81
2022/02/09 16:24:14;;;;;;;;;;;;;;;12.36;47.87;102353.97;145002;920;1017;-83
2022/02/09 16:37:47;;;;;;;;;;;;;;;12.61;45.25;102367.34;145002;915;1018;-83
2022/02/09 16:46:05;;;;;;;;;;;;;;;12.54;46.37;102373.09;145002;920;1020;-82
2022/02/09 16:48:31;;;;;;;;;;;;;;;12.60;45.50;102382.87;145002;920;1020;-83
2022/02/09 16:51:00;;;;;;;;;;;;;;;12.63;45.57;102378.75;145002;924;1016;-82
2022/02/09 16:56:27;;;;;;;;;;;;;;;12.67;45.72;102385.00;145002;920;1019;-83
2022/02/09 17:21:18;;;;;;;;;;;;;;;12.50;48.69;102408.53;145002;915;1019;-82
2022/02/09 17:23:44;;;;;;;;;;;;;;;12.65;47.05;102407.47;145002;924;1021;-82
2022/02/09 17:26:15;;;;;;;;;;;;;;;12.76;46.68;102421.00;145002;920;1020;-84
2022/02/09 17:28:44;;;;;;;;;;;;;;;12.80;46.62;102417.72;145002;923;1020;-83
2022/02/09 17:37:11;;;;;;;;;;;;;;;12.66;47.03;102420.59;145002;915;1022;-82
2022/02/09 17:53:31;;;;;;;;;;;;;;;12.16;50.58;102434.59;145002;913;1020;-83
2022/02/09 17:56:08;;;;;;;;;;;;;;;12.08;51.50;102438.50;145002;922;1018;-84
2022/02/09 17:58:45;;;;;;;;;;;;;;;12.06;51.54;102441.03;145002;917;1019;-84
2022/02/09 18:01:11;;;;;;;;;;;;;;;12.23;49.08;102449.69;145002;922;1018;-82
2022/02/09 18:03:38;;;;;;;;;;;;;;;12.28;48.75;102452.53;145002;918;1019;-83
2022/02/09 18:06:20;;;;;;;;;;;;;;;11.90;52.46;102446.22;145002;922;1019;-87
2022/02/09 18:14:34;;;;;;;;;;;;;;;11.95;51.83;102457.81;145002;915;1018;-82
2022/02/09 18:25:49;;;;;;;;;;;;;;;12.38;49.15;102456.50;145002;916;1021;-84
2022/02/09 18:31:10;;;;;;;;;;;;;;;12.25;49.78;102455.88;145002;916;1019;-83
2022/02/09 19:04:43;;;;;;;;;;;;;;;11.54;51.94;102459.09;145002;915;1021;-82
2022/02/09 19:18:34;;;;;;;;;;;;;;;11.63;51.77;102459.59;145002;920;1017;-87
2022/02/09 19:26:50;;;;;;;;;;;;;;;11.56;51.32;102486.06;145002;916;1022;-88
2022/02/09 19:46:09;;;;;;;;;;;;;;;11.48;51.32;102470.03;145002;920;1016;-85
2022/02/09 19:48:38;;;;;;;;;;;;;;;11.46;50.78;102470.78;145002;920;1019;-83
2022/02/09 19:51:15;;;;;;;;;;;;;;;11.62;50.67;102483.81;145002;923;1016;-86
2022/02/09 19:56:30;;;;;;;;;;;;;;;11.50;49.74;102503.94;145002;919;1019;-86
2022/02/09 20:01:37;;;;;;;;;;;;;;;11.50;50.65;102494.44;145002;920;1018;-89
2022/02/09 20:04:06;;;;;;;;;;;;;;;11.48;51.57;102513.38;145002;919;1018;-87
2022/02/09 20:06:32;;;;;;;;;;;;;;;11.64;51.19;102504.69;145002;923;1018;-87
2022/02/09 20:08:58;;;;;;;;;;;;;;;11.50;51.43;102503.94;145002;920;1018;-87
2022/02/09 20:11:42;;;;;;;;;;;;;;;11.71;50.87;102504.22;145002;924;1020;-88
2022/02/09 20:14:20;;;;;;;;;;;;;;;11.80;50.43;102517.69;145002;919;1016;-80
2022/02/09 20:16:51;;;;;;;;;;;;;;;11.66;51.97;102506.59;145002;923;1016;-86
2022/02/09 20:19:21;;;;;;;;;;;;;;;11.57;51.35;102519.09;145002;920;1018;-87
2022/02/09 20:21:47;;;;;;;;;;;;;;;11.48;52.50;102527.25;145002;924;1017;-89
2022/02/09 20:24:16;;;;;;;;;;;;;;;11.33;53.44;102522.13;145002;921;1018;-84
2022/02/09 20:26:43;;;;;;;;;;;;;;;11.46;52.68;102522.81;145002;924;1022;-84
2022/02/09 20:29:15;;;;;;;;;;;;;;;11.40;53.47;102545.03;145002;920;1020;-85
2022/02/09 20:31:51;;;;;;;;;;;;;;;11.15;54.41;102539.28;145002;925;1018;-87
2022/02/09 20:34:24;;;;;;;;;;;;;;;11.27;53.55;102526.97;145002;920;1020;-85
2022/02/09 20:36:50;;;;;;;;;;;;;;;11.25;53.08;102532.09;145002;924;1018;-83
2022/02/09 20:39:22;;;;;;;;;;;;;;;11.11;53.94;102540.81;145002;921;1020;-89
2022/02/09 20:41:53;;;;;;;;;;;;;;;11.21;53.63;102527.50;145002;924;1017;-84
2022/02/09 20:47:05;;;;;;;;;;;;;;;11.04;53.91;102549.09;145002;921;1023;-87
2022/02/09 20:49:31;;;;;;;;;;;;;;;11.12;53.77;102536.50;145002;920;1019;-84
2022/02/09 20:51:57;;;;;;;;;;;;;;;11.14;53.50;102534.91;145002;925;1018;-84
2022/02/09 20:54:23;;;;;;;;;;;;;;;11.11;53.23;102540.81;145002;917;1019;-84
2022/02/09 20:56:49;;;;;;;;;;;;;;;11.00;53.58;102539.31;145002;920;1018;-84
2022/02/09 20:59:17;;;;;;;;;;;;;;;11.04;53.55;102524.00;145002;916;1018;-85
2022/02/09 21:02:00;;;;;;;;;;;;;;;11.03;53.32;102518.69;145002;925;1024;-85
2022/02/09 21:04:28;;;;;;;;;;;;;;;10.99;53.32;102514.13;145002;920;1019;-85
2022/02/09 21:07:06;;;;;;;;;;;;;;;10.84;53.95;102517.66;145002;925;1018;-84
2022/02/09 21:09:51;;;;;;;;;;;;;;;10.86;53.96;102513.44;145002;921;1019;-86
2022/02/09 21:15:36;;;;;;;;;;;;;;;10.91;53.46;102507.59;145001;916;2000;-86
2022/02/09 21:23:57;;;;;;;;;;;;;;;10.78;53.73;102509.50;145002;921;1020;-86
2022/02/09 21:26:39;;;;;;;;;;;;;;;10.74;53.92;102506.62;145002;916;1020;-86
2022/02/09 22:16:52;;;;;;;;;;;;;;;10.39;56.78;102537.53;145002;917;1020;-87
2022/02/09 22:22:16;;;;;;;;;;;;;;;10.42;56.50;102540.31;145002;916;1024;-87
2022/02/09 22:27:38;;;;;;;;;;;;;;;10.42;56.57;102542.91;145002;916;1018;-87
2022/02/09 22:55:02;;;;;;;;;;;;;;;10.55;56.13;102561.78;145002;917;1020;-87
2022/02/09 23:00:36;;;;;;;;;;;;;;;10.47;56.67;102564.84;145002;917;1019;-84
2022/02/09 23:03:02;;;;;;;;;;;;;;;10.44;56.77;102559.47;145002;924;1022;-87
2022/02/09 23:26:15;;;;;;;;;;;;;;;11.08;54.34;102564.91;145002;920;1019;-83
2022/02/09 23:52:44;;;;;;;;;;;;;;;11.18;53.66;102568.97;145002;916;1016;-85
2022/02/09 23:56:42;;;;;;;;;;;;;;;11.39;52.62;102581.34;145002;916;1017;-83
